createdAt,value
2019-04-06T00:01:07.810Z,32.67
2019-04-06T00:03:34.755Z,26.90
2019-04-06T00:06:01.801Z,30.72
2019-04-06T00:08:28.847Z,32.45
2019-04-06T00:10:55.794Z,29.10
2019-04-06T00:13:23.760Z,27.42
2019-04-06T00:15:50.813Z,31.15
2019-04-06T00:18:17.753Z,30.82
2019-04-06T00:20:44.798Z,30.60
2019-04-06T00:23:11.743Z,28.70
2019-04-06T00:25:44.209Z,32.20
2019-04-06T00:28:07.988Z,32.00
2019-04-06T00:30:36.773Z,28.12
2019-04-06T00:33:05.505Z,25.70
2019-04-06T00:35:32.406Z,30.92
2019-04-06T00:37:59.756Z,27.70
2019-04-06T00:40:26.804Z,28.53
2019-04-06T00:42:53.747Z,26.30
2019-04-06T00:45:20.795Z,25.23
2019-04-06T00:47:47.739Z,28.47
2019-04-06T00:50:16.527Z,24.90
2019-04-06T00:52:43.573Z,24.87
2019-04-06T00:55:10.539Z,26.62
2019-04-06T00:57:37.461Z,25.50
2019-04-06T01:00:06.151Z,26.60
2019-04-06T01:02:33.193Z,27.87
2019-04-06T01:05:00.239Z,23.60
2019-04-06T01:07:27.183Z,23.55
2019-04-06T01:09:54.128Z,27.95
2019-04-06T01:12:21.175Z,27.13
2019-04-06T01:14:48.118Z,27.07
2019-04-06T01:17:15.166Z,24.82
2019-04-06T01:19:42.315Z,30.45
2019-04-06T01:22:09.259Z,26.60
2019-04-06T01:24:36.305Z,25.92
2019-04-06T01:27:03.352Z,24.32
2019-04-06T01:29:30.398Z,26.90
2019-04-06T01:31:57.549Z,30.82
2019-04-06T01:34:24.595Z,29.72
2019-04-06T01:36:51.538Z,25.77
2019-04-06T01:39:18.595Z,23.98
2019-04-06T01:41:45.631Z,24.32
2019-04-06T01:44:12.678Z,24.35
2019-04-06T01:46:39.731Z,31.60
2019-04-06T01:49:06.773Z,31.57
2019-04-06T01:51:33.716Z,29.50
2019-04-06T01:54:00.873Z,26.70
2019-04-06T01:56:27.817Z,25.85
2019-04-06T01:58:54.753Z,29.70
2019-04-06T02:01:23.543Z,29.00
2019-04-06T02:03:50.587Z,27.42
2019-04-06T02:06:17.730Z,28.98
2019-04-06T02:08:44.731Z,25.15
2019-04-06T02:11:11.768Z,27.48
2019-04-06T02:13:38.672Z,31.12
2019-04-06T02:16:05.616Z,24.05
2019-04-06T02:18:32.664Z,23.63
2019-04-06T02:20:59.916Z,29.35
2019-04-06T02:23:26.858Z,25.17
2019-04-06T02:25:53.802Z,26.97
2019-04-06T02:28:20.850Z,25.10
2019-04-06T02:31:01.516Z,23.80
2019-04-06T02:33:30.303Z,22.85
2019-04-06T02:36:15.649Z,26.00
2019-04-06T02:38:44.301Z,30.05
2019-04-06T02:41:12.894Z,30.47
2019-04-06T02:43:40.587Z,27.60
2019-04-06T02:46:07.345Z,25.00
2019-04-06T02:48:34.297Z,31.25
2019-04-06T02:51:01.239Z,30.65
2019-04-06T02:53:28.181Z,30.15
2019-04-06T02:55:55.258Z,31.90
2019-04-06T02:58:23.224Z,27.37
2019-04-06T03:00:51.107Z,31.48
2019-04-06T03:03:18.003Z,27.40
2019-04-06T03:05:44.817Z,27.15
2019-04-06T03:08:11.678Z,24.98
2019-04-06T03:10:38.471Z,32.38
2019-04-06T03:13:05.313Z,31.68
2019-04-06T03:15:32.221Z,28.75
2019-04-06T03:17:59.273Z,25.02
2019-04-06T03:20:26.205Z,25.75
2019-04-06T03:22:53.208Z,25.70
2019-04-06T03:25:20.118Z,25.60
2019-04-06T03:27:47.144Z,27.50
2019-04-06T03:30:14.191Z,25.92
2019-04-06T03:32:41.353Z,30.20
2019-04-06T03:35:08.559Z,24.23
2019-04-06T03:37:35.635Z,26.77
2019-04-06T03:40:03.442Z,26.90
2019-04-06T03:42:30.449Z,25.93
2019-04-06T03:44:57.495Z,28.45
2019-04-06T03:47:24.435Z,29.90
2019-04-06T03:49:51.522Z,28.73
2019-04-06T03:52:18.430Z,30.57
2019-04-06T03:54:45.475Z,27.45
2019-04-06T03:57:16.245Z,24.50
2019-04-06T03:59:41.102Z,25.23
2019-04-06T04:02:08.046Z,26.27
2019-04-06T04:04:35.187Z,28.20
2019-04-06T04:07:02.353Z,26.75
2019-04-06T04:09:29.559Z,26.82
2019-04-06T04:11:56.644Z,31.07
2019-04-06T04:14:23.873Z,24.98
2019-04-06T04:16:50.839Z,29.72
2019-04-06T04:19:18.045Z,29.75
2019-04-06T04:21:45.035Z,30.50
2019-04-06T04:24:11.989Z,26.05
2019-04-06T04:26:38.923Z,25.82
2019-04-06T04:29:05.970Z,27.50
2019-04-06T04:31:32.817Z,27.87
2019-04-06T04:33:59.773Z,27.75
2019-04-06T04:36:26.804Z,28.70
2019-04-06T04:38:53.875Z,33.45
2019-04-06T04:41:20.794Z,29.27
2019-04-06T04:43:47.841Z,33.28
2019-04-06T04:46:14.786Z,32.83
2019-04-06T04:48:41.830Z,28.70
2019-04-06T04:51:08.976Z,28.75
2019-04-06T04:53:35.931Z,29.70
2019-04-06T04:56:02.972Z,32.03
2019-04-06T04:58:29.928Z,27.40
2019-04-06T05:00:56.860Z,26.68
2019-04-06T05:03:23.809Z,29.07
2019-04-06T05:05:50.850Z,29.92
2019-04-06T05:08:17.693Z,27.98
2019-04-06T05:10:44.640Z,27.98
2019-04-06T05:13:11.579Z,27.73
2019-04-06T05:15:54.709Z,23.60
2019-04-06T05:18:21.648Z,29.55
2019-04-06T05:20:48.593Z,36.63
2019-04-06T05:23:15.638Z,33.80
2019-04-06T05:25:42.582Z,26.45
2019-04-06T05:28:09.834Z,31.70
2019-04-06T05:30:36.821Z,31.33
2019-04-06T05:33:03.825Z,32.05
2019-04-06T05:35:30.872Z,29.75
2019-04-06T05:37:57.889Z,29.95
2019-04-06T05:40:24.965Z,32.93
2019-04-06T05:42:52.222Z,30.95
2019-04-06T05:45:19.263Z,29.65
2019-04-06T05:47:46.310Z,33.92
2019-04-06T05:50:13.356Z,33.28
2019-04-06T05:52:40.315Z,38.35
2019-04-06T05:55:07.313Z,32.17
2019-04-06T05:57:34.289Z,33.50
2019-04-06T06:00:01.340Z,34.53
2019-04-06T06:02:28.385Z,35.70
2019-04-06T06:04:55.453Z,37.00
2019-04-06T06:07:22.461Z,39.20
2019-04-06T06:09:49.465Z,33.00
2019-04-06T06:12:16.292Z,31.65
2019-04-06T06:14:43.144Z,31.95
2019-04-06T06:17:09.933Z,31.30
2019-04-06T06:19:37.395Z,33.00
2019-04-06T06:22:04.217Z,38.20
2019-04-06T06:24:31.048Z,35.85
2019-04-06T06:26:57.890Z,37.70
2019-04-06T06:29:24.719Z,37.98
2019-04-06T06:31:51.661Z,39.58
2019-04-06T06:34:18.429Z,36.25
2019-04-06T06:36:45.260Z,35.98
2019-04-06T06:39:12.157Z,35.48
2019-04-06T06:41:38.968Z,32.42
2019-04-06T06:44:05.822Z,38.98
2019-04-06T06:46:32.699Z,43.00
2019-04-06T06:48:59.525Z,39.90
2019-04-06T06:51:26.345Z,44.45
2019-04-06T06:53:53.283Z,43.58
2019-04-06T06:56:20.156Z,44.23
2019-04-06T06:58:46.997Z,46.20
2019-04-06T07:01:14.010Z,42.15
2019-04-06T07:03:40.848Z,40.08
2019-04-06T07:06:07.613Z,42.40
2019-04-06T07:08:34.394Z,41.08
2019-04-06T07:11:01.223Z,39.10
2019-04-06T07:13:28.008Z,44.77
2019-04-06T07:15:54.852Z,38.13
2019-04-06T07:18:21.651Z,45.58
2019-04-06T07:20:48.500Z,42.62
2019-04-06T07:23:15.447Z,44.80
2019-04-06T07:25:42.289Z,41.25
2019-04-06T07:28:09.068Z,37.70
2019-04-06T07:30:35.924Z,41.00
2019-04-06T07:33:02.776Z,40.00
2019-04-06T07:35:29.620Z,42.67
2019-04-06T07:37:56.500Z,38.23
2019-04-06T07:40:23.292Z,41.42
2019-04-06T07:42:50.138Z,39.13
2019-04-06T07:45:16.916Z,38.95
2019-04-06T07:47:43.807Z,40.38
2019-04-06T07:50:11.023Z,44.00
2019-04-06T07:52:37.927Z,40.95
2019-04-06T07:55:06.371Z,41.25
2019-04-06T07:57:33.312Z,40.15
2019-04-06T08:00:00.152Z,41.63
2019-04-06T08:02:28.780Z,41.68
2019-04-06T08:04:55.778Z,40.25
2019-04-06T08:07:22.615Z,42.25
2019-04-06T08:09:49.449Z,39.70
2019-04-06T08:12:16.237Z,40.95
2019-04-06T08:14:43.073Z,40.28
2019-04-06T08:17:10.114Z,38.65
2019-04-06T08:19:37.092Z,37.80
2019-04-06T08:22:04.731Z,42.97
2019-04-06T08:24:31.670Z,37.00
2019-04-06T08:26:58.617Z,35.88
2019-04-06T08:29:26.276Z,37.65
2019-04-06T08:31:53.252Z,38.20
2019-04-06T08:34:20.160Z,35.95
2019-04-06T08:36:47.085Z,35.92
2019-04-06T08:39:13.981Z,36.00
2019-04-06T08:43:12.292Z,36.35
2019-04-06T08:45:39.132Z,36.33
2019-04-06T08:48:06.584Z,34.00
2019-04-06T08:50:35.943Z,35.28
2019-04-06T08:53:04.347Z,36.65
2019-04-06T08:55:36.315Z,36.00
2019-04-06T08:58:12.040Z,35.33
2019-04-06T09:00:44.106Z,34.55
2019-04-06T09:03:11.072Z,33.60
2019-04-06T09:05:38.082Z,32.78
2019-04-06T09:08:12.256Z,31.25
2019-04-06T09:10:46.457Z,30.13
2019-04-06T09:13:13.784Z,30.57
2019-04-06T09:15:43.926Z,30.80
2019-04-06T09:18:13.258Z,31.25
2019-04-06T09:20:46.962Z,27.50
2019-04-06T09:23:20.221Z,26.55
2019-04-06T09:26:06.310Z,27.60
2019-04-06T09:28:39.245Z,24.98
2019-04-06T09:31:10.814Z,25.77
2019-04-06T09:33:39.822Z,27.62
2019-04-06T09:36:08.622Z,26.00
2019-04-06T09:38:35.589Z,25.30
2019-04-06T09:41:08.299Z,26.07
2019-04-06T09:43:41.022Z,25.50
2019-04-06T09:46:18.571Z,25.35
2019-04-06T09:48:56.057Z,28.87
2019-04-06T09:51:31.500Z,28.20
2019-04-06T09:54:11.117Z,29.23
2019-04-06T09:56:44.233Z,28.23
2019-04-06T09:59:17.507Z,23.80
2019-04-06T10:02:04.117Z,23.30
2019-04-06T10:04:48.260Z,22.25
2019-04-06T10:07:30.176Z,22.05
2019-04-06T10:10:09.571Z,21.33
2019-04-06T10:12:53.502Z,23.17
2019-04-06T10:15:46.435Z,24.55
2019-04-06T10:18:33.389Z,21.77
2019-04-06T10:21:04.147Z,25.00
2019-04-06T10:23:40.483Z,25.15
2019-04-06T10:26:08.526Z,21.90
2019-04-06T10:28:37.592Z,21.60
2019-04-06T10:31:09.528Z,23.47
2019-04-06T10:33:43.112Z,24.95
2019-04-06T10:36:20.160Z,24.32
2019-04-06T10:38:50.430Z,27.45
2019-04-06T10:41:42.015Z,23.80
2019-04-06T10:44:28.095Z,23.00
2019-04-06T10:47:03.295Z,24.40
2019-04-06T10:49:50.674Z,25.80
2019-04-06T10:52:40.399Z,25.97
2019-04-06T10:55:32.949Z,28.27
2019-04-06T10:58:07.260Z,24.13
2019-04-06T11:00:46.460Z,21.82
2019-04-06T11:03:19.401Z,25.32
2019-04-06T11:06:07.843Z,25.57
2019-04-06T11:08:55.144Z,26.12
2019-04-06T11:11:30.388Z,25.50
2019-04-06T11:14:19.410Z,24.95
2019-04-06T11:17:01.744Z,23.77
2019-04-06T11:19:38.313Z,26.77
2019-04-06T11:22:11.797Z,24.23
2019-04-06T11:24:55.237Z,22.70
2019-04-06T11:27:47.241Z,24.52
2019-04-06T11:30:27.421Z,23.50
2019-04-06T11:32:56.097Z,24.80
2019-04-06T11:35:43.922Z,24.27
2019-04-06T11:38:16.604Z,24.90
2019-04-06T11:40:50.439Z,23.98
2019-04-06T11:43:23.800Z,28.73
2019-04-06T11:45:58.173Z,23.30
2019-04-06T11:48:27.074Z,21.65
2019-04-06T11:51:17.098Z,22.40
2019-04-06T11:54:07.311Z,20.65
2019-04-06T11:56:38.277Z,19.30
2019-04-06T11:59:12.706Z,20.30
2019-04-06T12:02:03.119Z,18.98
2019-04-06T12:04:41.543Z,17.52
2019-04-06T12:07:29.720Z,17.35
2019-04-06T12:10:04.278Z,17.55
2019-04-06T12:12:48.309Z,15.90
2019-04-06T12:15:26.049Z,15.72
2019-04-06T12:18:01.367Z,16.12
2019-04-06T12:20:35.996Z,16.23
2019-04-06T12:23:11.506Z,15.05
2019-04-06T12:26:00.541Z,13.30
2019-04-06T12:28:33.765Z,13.45
2019-04-06T12:31:03.581Z,15.03
2019-04-06T12:33:52.113Z,14.45
2019-04-06T12:36:32.725Z,14.45
2019-04-06T12:39:13.016Z,13.30
2019-04-06T12:41:58.482Z,13.20
2019-04-06T12:44:30.111Z,12.25
2019-04-06T12:47:04.053Z,11.18
2019-04-06T12:49:35.619Z,11.18
2019-04-06T12:52:25.734Z,10.10
2019-04-06T12:55:14.608Z,10.90
2019-04-06T12:57:52.399Z,10.43
2019-04-06T13:00:50.725Z,11.00
2019-04-06T13:03:15.155Z,10.40
2019-04-06T13:06:00.855Z,9.90
2019-04-06T13:08:37.599Z,10.85
2019-04-06T13:11:15.358Z,10.78
2019-04-06T13:14:04.325Z,10.30
2019-04-06T13:16:36.498Z,11.10
2019-04-06T13:19:11.014Z,9.75
2019-04-06T13:21:58.906Z,9.65
2019-04-06T13:24:31.330Z,10.20
2019-04-06T13:27:02.883Z,9.25
2019-04-06T13:29:39.084Z,10.85
2019-04-06T13:32:27.416Z,9.50
2019-04-06T13:34:59.149Z,10.30
2019-04-06T13:37:39.436Z,10.72
2019-04-06T13:40:25.156Z,11.77
2019-04-06T13:42:56.771Z,11.57
2019-04-06T13:45:28.672Z,10.40
2019-04-06T13:48:14.644Z,9.33
2019-04-06T13:50:49.838Z,10.07
2019-04-06T13:53:29.214Z,9.20
2019-04-06T13:56:06.300Z,9.70
2019-04-06T13:58:43.804Z,9.15
2019-04-06T14:01:18.892Z,9.23
2019-04-06T14:04:05.558Z,8.90
2019-04-06T14:06:44.301Z,9.43
2019-04-06T14:09:29.568Z,7.80
2019-04-06T14:12:07.159Z,9.10
2019-04-06T14:14:48.375Z,9.30
2019-04-06T14:17:14.493Z,9.70
2019-04-06T14:19:49.326Z,9.05
2019-04-06T14:22:32.979Z,8.50
2019-04-06T14:25:07.977Z,9.03
2019-04-06T14:27:46.610Z,8.98
2019-04-06T14:30:21.801Z,9.90
2019-04-06T14:33:14.082Z,8.50
2019-04-06T14:35:48.660Z,8.95
2019-04-06T14:38:27.972Z,8.90
2019-04-06T14:41:20.307Z,8.60
2019-04-06T14:44:04.314Z,8.58
2019-04-06T14:46:33.051Z,8.63
2019-04-06T14:49:12.051Z,8.55
2019-04-06T14:51:34.984Z,7.92
2019-04-06T14:54:06.844Z,7.67
2019-04-06T14:56:35.636Z,8.33
2019-04-06T14:59:16.606Z,8.18
2019-04-06T15:01:59.478Z,8.00
2019-04-06T15:04:34.399Z,7.70
2019-04-06T15:07:18.348Z,7.83
2019-04-06T15:09:50.057Z,7.65
2019-04-06T15:12:27.810Z,6.30
2019-04-06T15:15:13.769Z,6.22
2019-04-06T15:17:48.826Z,6.65
2019-04-06T15:20:17.474Z,5.70
2019-04-06T15:22:55.629Z,7.78
2019-04-06T15:25:41.289Z,7.17
2019-04-06T15:28:18.979Z,7.28
2019-04-06T15:30:47.658Z,7.20
2019-04-06T15:33:16.565Z,7.20
2019-04-06T15:35:54.495Z,6.90
2019-04-06T15:38:38.330Z,6.05
2019-04-06T15:41:25.584Z,5.87
2019-04-06T15:44:11.587Z,6.35
2019-04-06T15:46:55.420Z,6.00
2019-04-06T15:49:32.944Z,5.30
2019-04-06T15:52:19.621Z,6.47
2019-04-06T15:54:51.209Z,5.40
2019-04-06T15:57:34.704Z,5.62
2019-04-06T16:00:03.544Z,4.43
2019-04-06T16:02:47.477Z,4.70
2019-04-06T16:05:19.189Z,4.58
2019-04-06T16:07:50.784Z,5.67
2019-04-06T16:10:19.371Z,5.35
2019-04-06T16:13:04.372Z,5.30
2019-04-06T16:15:39.242Z,5.05
2019-04-06T16:18:08.174Z,6.08
2019-04-06T16:20:51.845Z,5.10
2019-04-06T16:23:20.485Z,5.40
2019-04-06T16:25:58.395Z,6.12
2019-04-06T16:28:43.676Z,5.62
2019-04-06T16:31:15.097Z,5.42
2019-04-06T16:33:43.718Z,5.17
2019-04-06T16:36:12.362Z,5.15
2019-04-06T16:38:41.006Z,5.37
2019-04-06T16:41:09.672Z,4.72
2019-04-06T16:43:50.759Z,5.42
2019-04-06T16:46:19.400Z,5.20
2019-04-06T16:49:03.495Z,5.40
2019-04-06T16:51:32.092Z,5.67
2019-04-06T16:54:03.755Z,5.70
2019-04-06T16:56:41.330Z,5.67
2019-04-06T16:59:15.800Z,5.20
2019-04-06T17:01:53.462Z,5.20
2019-04-06T17:04:24.897Z,5.23
2019-04-06T17:07:08.622Z,5.30
2019-04-06T17:09:37.687Z,5.53
2019-04-06T17:12:12.519Z,5.65
2019-04-06T17:14:57.769Z,5.03
2019-04-06T17:17:29.126Z,5.47
2019-04-06T17:20:00.818Z,4.95
2019-04-06T17:22:35.832Z,5.60
2019-04-06T17:25:07.552Z,5.83
2019-04-06T17:27:42.292Z,5.60
2019-04-06T17:30:14.180Z,5.17
2019-04-06T17:32:59.613Z,4.08
2019-04-06T17:35:34.018Z,4.80
2019-04-06T17:38:18.071Z,5.30
2019-04-06T17:40:49.539Z,5.20
2019-04-06T17:43:35.216Z,5.55
2019-04-06T17:46:07.112Z,5.30
2019-04-06T17:48:41.800Z,4.95
2019-04-06T17:51:16.944Z,5.53
2019-04-06T17:54:04.003Z,6.40
2019-04-06T17:56:33.251Z,5.12
2019-04-06T17:59:02.157Z,5.40
2019-04-06T18:01:40.001Z,5.37
2019-04-06T18:04:11.619Z,5.15
2019-04-06T18:06:57.174Z,5.35
2019-04-06T18:09:25.962Z,5.40
2019-04-06T18:12:00.818Z,5.12
2019-04-06T18:14:28.011Z,5.00
2019-04-06T18:16:55.470Z,6.10
2019-04-06T18:19:22.696Z,5.75
2019-04-06T18:21:49.694Z,4.80
2019-04-06T18:24:16.906Z,8.45
2019-04-06T18:26:43.824Z,10.65
2019-04-06T18:29:11.141Z,8.68
2019-04-06T18:31:56.620Z,5.30
2019-04-06T18:34:23.893Z,5.25
2019-04-06T18:36:52.658Z,4.65
2019-04-06T18:39:20.320Z,4.60
2019-04-06T18:41:47.265Z,5.20
2019-04-06T18:44:14.214Z,4.75
2019-04-06T18:46:41.921Z,4.47
2019-04-06T18:49:08.955Z,4.97
2019-04-06T18:51:36.599Z,4.78
2019-04-06T18:54:04.065Z,4.35
2019-04-06T18:56:31.081Z,4.62
2019-04-06T18:58:58.369Z,4.77
2019-04-06T19:01:25.777Z,5.05
2019-04-06T19:03:52.916Z,5.42
2019-04-06T19:06:19.881Z,4.20
2019-04-06T19:08:46.846Z,4.78
2019-04-06T19:11:14.179Z,4.72
2019-04-06T19:13:41.138Z,4.60
2019-04-06T19:16:08.067Z,4.78
2019-04-06T19:18:35.133Z,4.60
2019-04-06T19:21:02.059Z,5.20
2019-04-06T19:23:29.740Z,3.90
2019-04-06T19:25:56.971Z,4.15
2019-04-06T19:28:24.834Z,4.35
2019-04-06T19:30:52.088Z,4.20
2019-04-06T19:33:25.001Z,4.60
2019-04-06T19:35:48.346Z,4.55
2019-04-06T19:38:15.480Z,4.17
2019-04-06T19:40:42.767Z,4.90
2019-04-06T19:43:09.918Z,5.50
2019-04-06T19:45:37.197Z,4.42
2019-04-06T19:48:04.777Z,4.20
2019-04-06T19:50:31.772Z,4.40
2019-04-06T19:52:58.886Z,4.78
2019-04-06T19:55:25.933Z,4.20
2019-04-06T19:57:52.983Z,4.80
2019-04-06T20:00:20.435Z,4.15
2019-04-06T20:02:47.381Z,3.80
2019-04-06T20:05:14.263Z,4.30
2019-04-06T20:07:41.166Z,3.80
2019-04-06T20:10:08.827Z,3.90
2019-04-06T20:12:36.161Z,3.60
2019-04-06T20:15:05.070Z,3.50
2019-04-06T20:17:32.118Z,4.00
2019-04-06T20:20:00.124Z,4.30
2019-04-06T20:22:27.220Z,4.40
2019-04-06T20:24:54.284Z,3.92
2019-04-06T20:27:21.228Z,3.47
2019-04-06T20:29:48.650Z,3.52
2019-04-06T20:32:15.982Z,3.50
2019-04-06T20:34:43.528Z,3.75
2019-04-06T20:37:10.436Z,3.80
2019-04-06T20:39:37.489Z,4.20
2019-04-06T20:42:05.134Z,3.30
2019-04-06T20:44:32.489Z,3.55
2019-04-06T20:47:00.671Z,3.45
2019-04-06T20:49:27.716Z,3.67
2019-04-06T20:51:54.764Z,3.60
2019-04-06T20:54:22.015Z,3.37
2019-04-06T20:56:56.004Z,4.95
2019-04-06T20:59:18.306Z,3.20
2019-04-06T21:01:45.305Z,3.25
2019-04-06T21:04:12.249Z,4.42
2019-04-06T21:06:39.205Z,3.00
2019-04-06T21:09:08.732Z,3.08
2019-04-06T21:11:35.801Z,3.37
2019-04-06T21:14:03.277Z,2.90
2019-04-06T21:16:30.252Z,2.60
2019-04-06T21:18:57.422Z,3.22
2019-04-06T21:21:24.805Z,2.55
2019-04-06T21:23:51.797Z,2.80
2019-04-06T21:26:18.748Z,2.67
2019-04-06T21:28:45.788Z,2.70
2019-04-06T21:31:12.835Z,2.40
2019-04-06T21:33:39.779Z,2.60
2019-04-06T21:36:06.826Z,2.40
2019-04-06T21:38:34.339Z,2.40
2019-04-06T21:41:01.332Z,2.70
2019-04-06T21:43:28.931Z,2.87
2019-04-06T21:45:56.516Z,2.20
2019-04-06T21:48:23.697Z,2.67
2019-04-06T21:50:50.744Z,2.10
2019-04-06T21:53:18.579Z,2.10
2019-04-06T21:55:45.890Z,2.20
2019-04-06T21:58:13.048Z,2.25
2019-04-06T22:00:44.784Z,2.27
2019-04-06T22:03:12.159Z,1.90
2019-04-06T22:05:39.848Z,2.20
2019-04-06T22:08:07.052Z,2.10
2019-04-06T22:10:34.290Z,2.27
2019-04-06T22:13:01.445Z,1.90
2019-04-06T22:15:28.481Z,1.80
2019-04-06T22:17:55.700Z,2.60
2019-04-06T22:20:23.230Z,1.90
2019-04-06T22:22:50.262Z,2.00
2019-04-06T22:25:19.727Z,4.03
2019-04-06T22:27:47.534Z,2.75
2019-04-06T22:30:14.913Z,2.83
2019-04-06T22:32:41.951Z,2.52
2019-04-06T22:35:09.154Z,2.22
2019-04-06T22:37:36.099Z,2.90
2019-04-06T22:40:05.194Z,1.90
2019-04-06T22:42:32.139Z,2.20
2019-04-06T22:44:59.184Z,2.25
2019-04-06T22:47:26.315Z,2.30
2019-04-06T22:49:53.626Z,2.30
2019-04-06T22:52:20.632Z,2.50
2019-04-06T22:54:47.729Z,2.12
2019-04-06T22:57:16.937Z,2.70
2019-04-06T22:59:43.922Z,2.10
2019-04-06T23:02:10.998Z,1.98
2019-04-06T23:04:56.244Z,1.98
2019-04-06T23:07:24.925Z,1.80
2019-04-06T23:09:52.075Z,2.20
2019-04-06T23:12:19.025Z,2.30
2019-04-06T23:14:45.856Z,1.90
2019-04-06T23:17:12.688Z,2.40
2019-04-06T23:19:39.549Z,2.75
2019-04-06T23:22:06.594Z,2.50
2019-04-06T23:24:33.539Z,1.80
2019-04-06T23:27:00.485Z,1.92
2019-04-06T23:29:27.971Z,2.10
2019-04-06T23:31:54.855Z,2.00
2019-04-06T23:34:21.700Z,2.20
2019-04-06T23:36:48.489Z,2.60
2019-04-06T23:39:15.335Z,2.50
2019-04-06T23:41:43.707Z,2.10
2019-04-06T23:44:10.761Z,2.50
2019-04-06T23:46:37.540Z,2.83
2019-04-06T23:49:04.374Z,2.50
2019-04-06T23:51:31.437Z,2.45
2019-04-06T23:53:58.511Z,2.65
2019-04-06T23:56:25.417Z,3.90
2019-04-06T23:58:52.365Z,3.10
